createdAt,value
2018-02-14T00:00:48.814Z,14.95
2018-02-14T00:03:16.446Z,15.30
2018-02-14T00:05:44.036Z,16.00
2018-02-14T00:08:11.663Z,16.85
2018-02-14T00:10:39.882Z,17.10
2018-02-14T00:13:08.466Z,16.35
2018-02-14T00:15:36.057Z,15.75
2018-02-14T00:18:03.645Z,16.50
2018-02-14T00:20:31.228Z,15.55
2018-02-14T00:22:58.854Z,15.43
2018-02-14T00:25:26.438Z,15.35
2018-02-14T00:27:54.032Z,15.90
2018-02-14T00:30:22.479Z,13.52
2018-02-14T00:32:50.106Z,15.40
2018-02-14T00:35:17.731Z,15.45
2018-02-14T00:37:45.319Z,15.63
2018-02-14T00:40:12.975Z,18.50
2018-02-14T00:42:40.782Z,17.05
2018-02-14T00:45:08.412Z,17.42
2018-02-14T00:47:35.998Z,16.80
2018-02-14T00:50:03.626Z,16.60
2018-02-14T00:52:31.212Z,17.48
2018-02-14T00:54:58.847Z,16.15
2018-02-14T00:57:27.039Z,14.80
2018-02-14T00:59:54.728Z,16.87
2018-02-14T01:02:22.367Z,18.02
2018-02-14T01:04:49.998Z,18.48
2018-02-14T01:07:17.591Z,16.98
2018-02-14T01:09:45.179Z,17.40
2018-02-14T01:12:12.763Z,19.17
2018-02-14T01:14:40.355Z,18.17
2018-02-14T01:17:07.950Z,17.05
2018-02-14T01:19:37.352Z,18.92
2018-02-14T01:22:04.935Z,18.98
2018-02-14T01:24:32.561Z,18.50
2018-02-14T01:27:00.147Z,21.42
2018-02-14T01:29:27.800Z,19.02
2018-02-14T01:31:55.382Z,19.58
2018-02-14T01:34:22.966Z,17.70
2018-02-14T01:36:50.599Z,18.73
2018-02-14T01:39:18.187Z,19.62
2018-02-14T01:41:45.774Z,19.40
2018-02-14T01:44:13.368Z,17.58
2018-02-14T01:46:40.962Z,17.27
2018-02-14T01:49:08.585Z,16.55
2018-02-14T01:51:36.174Z,18.02
2018-02-14T01:54:03.876Z,18.52
2018-02-14T01:56:31.458Z,17.58
2018-02-14T01:59:00.354Z,18.80
2018-02-14T02:01:28.019Z,19.00
2018-02-14T02:03:55.664Z,20.58
2018-02-14T02:06:23.252Z,19.05
2018-02-14T02:08:50.875Z,18.45
2018-02-14T02:11:18.490Z,17.73
2018-02-14T02:13:46.080Z,16.52
2018-02-14T02:16:13.800Z,17.87
2018-02-14T02:18:41.390Z,15.65
2018-02-14T02:21:09.014Z,18.35
2018-02-14T02:23:36.642Z,17.25
2018-02-14T02:26:04.230Z,17.48
2018-02-14T02:28:31.819Z,17.55
2018-02-14T02:30:59.406Z,21.25
2018-02-14T02:33:26.990Z,18.23
2018-02-14T02:35:54.578Z,20.02
2018-02-14T02:38:22.179Z,18.45
2018-02-14T02:40:49.763Z,18.35
2018-02-14T02:43:17.432Z,18.77
2018-02-14T02:45:45.047Z,17.85
2018-02-14T02:48:13.617Z,14.65
2018-02-14T02:50:41.235Z,16.73
2018-02-14T02:53:08.823Z,15.55
2018-02-14T02:55:36.414Z,16.23
2018-02-14T02:58:04.727Z,16.00
2018-02-14T03:00:32.339Z,16.25
2018-02-14T03:03:00.120Z,16.37
2018-02-14T03:05:27.699Z,16.23
2018-02-14T03:07:55.318Z,15.55
2018-02-14T03:10:22.904Z,16.80
2018-02-14T03:12:50.492Z,15.05
2018-02-14T03:15:18.185Z,15.20
2018-02-14T03:17:45.770Z,13.95
2018-02-14T03:20:13.355Z,14.38
2018-02-14T03:22:40.974Z,15.55
2018-02-14T03:25:08.573Z,15.77
2018-02-14T03:27:36.241Z,15.20
2018-02-14T03:30:04.618Z,15.98
2018-02-14T03:32:32.923Z,15.80
2018-02-14T03:35:00.507Z,13.95
2018-02-14T03:37:28.868Z,14.93
2018-02-14T03:39:57.177Z,14.75
2018-02-14T03:42:24.787Z,16.80
2018-02-14T03:44:52.414Z,15.45
2018-02-14T03:47:20.003Z,16.37
2018-02-14T03:49:47.583Z,15.52
2018-02-14T03:52:16.025Z,13.98
2018-02-14T03:54:43.612Z,14.60
2018-02-14T03:57:11.251Z,15.23
2018-02-14T03:59:38.840Z,14.60
2018-02-14T04:02:06.422Z,15.35
2018-02-14T04:04:34.802Z,14.45
2018-02-14T04:07:03.244Z,14.75
2018-02-14T04:09:30.872Z,16.02
2018-02-14T04:11:58.460Z,14.35
2018-02-14T04:14:26.086Z,14.05
2018-02-14T04:16:53.673Z,13.80
2018-02-14T04:19:21.294Z,15.55
2018-02-14T04:21:48.878Z,15.23
2018-02-14T04:24:17.082Z,16.85
2018-02-14T04:26:44.667Z,16.50
2018-02-14T04:29:12.251Z,16.40
2018-02-14T04:31:40.594Z,15.93
2018-02-14T04:34:10.219Z,15.23
2018-02-14T04:36:37.836Z,15.65
2018-02-14T04:39:06.191Z,16.90
2018-02-14T04:41:34.524Z,15.00
2018-02-14T04:44:02.903Z,15.52
2018-02-14T04:46:31.325Z,17.62
2018-02-14T04:48:59.690Z,14.55
2018-02-14T04:51:28.090Z,15.38
2018-02-14T04:53:56.641Z,15.30
2018-02-14T04:56:24.938Z,16.42
2018-02-14T04:58:53.298Z,16.77
2018-02-14T05:01:21.822Z,16.23
2018-02-14T05:03:50.054Z,14.55
2018-02-14T05:06:17.690Z,16.30
2018-02-14T05:08:46.211Z,16.15
2018-02-14T05:11:13.795Z,17.05
2018-02-14T05:13:42.319Z,18.52
2018-02-14T05:16:10.670Z,16.27
2018-02-14T05:18:39.093Z,17.40
2018-02-14T05:21:06.714Z,15.90
2018-02-14T05:23:34.343Z,17.30
2018-02-14T05:26:01.967Z,16.85
2018-02-14T05:28:29.591Z,16.67
2018-02-14T05:30:57.179Z,14.85
2018-02-14T05:33:24.798Z,15.10
2018-02-14T05:35:52.383Z,18.23
2018-02-14T05:38:20.570Z,15.85
2018-02-14T05:40:48.967Z,18.12
2018-02-14T05:43:16.558Z,17.73
2018-02-14T05:45:44.180Z,17.52
2018-02-14T05:48:11.767Z,17.35
2018-02-14T05:50:39.479Z,17.60
2018-02-14T05:53:07.335Z,18.50
2018-02-14T05:55:35.063Z,17.62
2018-02-14T05:58:03.675Z,17.08
2018-02-14T06:00:31.310Z,18.25
2018-02-14T06:02:58.894Z,19.52
2018-02-14T06:05:26.587Z,17.75
2018-02-14T06:07:54.179Z,16.27
2018-02-14T06:10:21.800Z,17.30
2018-02-14T06:12:49.387Z,22.30
2018-02-14T06:15:17.934Z,20.70
2018-02-14T06:17:45.566Z,23.23
2018-02-14T06:20:13.228Z,22.85
2018-02-14T06:22:40.823Z,22.65
2018-02-14T06:25:09.184Z,20.98
2018-02-14T06:27:36.820Z,20.83
2018-02-14T06:30:12.979Z,18.80
2018-02-14T06:32:40.596Z,21.33
2018-02-14T06:35:08.182Z,19.55
2018-02-14T06:37:35.881Z,19.73
2018-02-14T06:40:04.364Z,21.55
2018-02-14T06:42:31.989Z,20.35
2018-02-14T06:45:00.531Z,21.90
2018-02-14T06:47:28.151Z,20.30
2018-02-14T06:49:55.740Z,17.08
2018-02-14T06:52:23.374Z,21.35
2018-02-14T06:54:51.814Z,18.52
2018-02-14T06:57:20.107Z,18.05
2018-02-14T06:59:48.476Z,16.95
2018-02-14T07:02:16.072Z,19.35
2018-02-14T07:04:43.661Z,18.48
2018-02-14T07:07:11.249Z,18.70
2018-02-14T07:09:38.836Z,19.30
2018-02-14T07:12:07.210Z,18.27
2018-02-14T07:14:35.579Z,20.58
2018-02-14T07:17:03.172Z,20.85
2018-02-14T07:19:30.766Z,22.15
2018-02-14T07:21:58.352Z,21.73
2018-02-14T07:24:25.940Z,19.58
2018-02-14T07:26:53.527Z,22.02
2018-02-14T07:29:22.047Z,22.02
2018-02-14T07:31:49.634Z,21.58
2018-02-14T07:34:17.236Z,23.02
2018-02-14T07:36:45.650Z,20.73
2018-02-14T07:39:13.949Z,21.30
2018-02-14T07:41:42.342Z,23.17
2018-02-14T07:44:10.784Z,22.83
2018-02-14T07:46:38.414Z,24.33
2018-02-14T07:49:06.016Z,21.58
2018-02-14T07:51:33.712Z,21.30
2018-02-14T07:54:01.331Z,23.95
2018-02-14T07:56:28.923Z,23.55
2018-02-14T07:58:57.438Z,23.58
2018-02-14T08:01:25.621Z,22.55
2018-02-14T08:03:53.263Z,21.75
2018-02-14T08:06:21.460Z,23.75
2018-02-14T08:08:49.090Z,25.35
2018-02-14T08:11:17.643Z,21.67
2018-02-14T08:13:45.226Z,21.87
2018-02-14T08:16:13.671Z,22.15
2018-02-14T08:18:41.256Z,21.17
2018-02-14T08:21:08.846Z,23.42
2018-02-14T08:23:36.521Z,22.42
2018-02-14T08:26:04.977Z,23.00
2018-02-14T08:28:34.087Z,20.77
2018-02-14T08:31:02.356Z,21.00
2018-02-14T08:33:30.794Z,23.27
2018-02-14T08:35:58.663Z,21.10
2018-02-14T08:38:26.346Z,23.00
2018-02-14T08:40:53.946Z,23.52
2018-02-14T08:43:21.531Z,25.50
2018-02-14T08:45:49.128Z,25.12
2018-02-14T08:48:16.760Z,22.40
2018-02-14T08:50:44.351Z,22.90
2018-02-14T08:53:11.943Z,22.75
2018-02-14T08:55:40.366Z,24.30
2018-02-14T08:58:07.963Z,23.40
2018-02-14T09:00:36.391Z,24.65
2018-02-14T09:03:04.012Z,25.65
2018-02-14T09:05:31.613Z,26.87
2018-02-14T09:07:59.215Z,24.75
2018-02-14T09:10:26.847Z,25.77
2018-02-14T09:12:54.444Z,26.98
2018-02-14T09:15:22.038Z,26.12
2018-02-14T09:17:49.634Z,26.58
2018-02-14T09:20:17.406Z,26.85
2018-02-14T09:22:44.989Z,25.05
2018-02-14T09:25:13.288Z,28.55
2018-02-14T09:27:40.899Z,27.35
2018-02-14T09:30:09.089Z,25.67
2018-02-14T09:32:36.674Z,30.92
2018-02-14T09:35:04.265Z,31.48
2018-02-14T09:37:31.925Z,34.33
2018-02-14T09:39:59.568Z,40.42
2018-02-14T09:42:27.929Z,34.35
2018-02-14T09:44:56.483Z,38.23
2018-02-14T09:47:24.059Z,39.23
2018-02-14T09:49:51.652Z,41.13
2018-02-14T09:52:19.264Z,37.73
2018-02-14T09:54:47.736Z,39.17
2018-02-14T09:57:15.313Z,38.07
2018-02-14T09:59:43.904Z,37.50
2018-02-14T10:02:11.485Z,36.67
2018-02-14T10:04:39.067Z,36.00
2018-02-14T10:07:06.790Z,36.30
2018-02-14T10:09:34.369Z,33.83
2018-02-14T10:12:02.008Z,36.07
2018-02-14T10:14:29.590Z,30.97
2018-02-14T10:16:57.167Z,32.00
2018-02-14T10:19:24.750Z,32.73
2018-02-14T10:21:52.385Z,33.77
2018-02-14T10:24:19.966Z,31.57
2018-02-14T10:26:47.551Z,31.70
2018-02-14T10:29:15.134Z,32.10
2018-02-14T10:31:42.718Z,33.47
2018-02-14T10:34:10.298Z,33.13
2018-02-14T10:36:37.869Z,30.00
2018-02-14T10:39:06.350Z,28.73
2018-02-14T10:41:33.931Z,30.80
2018-02-14T10:44:01.509Z,29.57
2018-02-14T10:46:29.096Z,34.27
2018-02-14T10:48:56.674Z,28.30
2018-02-14T10:51:24.259Z,28.13
2018-02-14T10:53:51.883Z,27.53
2018-02-14T10:56:19.463Z,27.63
2018-02-14T10:58:47.039Z,24.83
2018-02-14T11:01:20.050Z,26.50
2018-02-14T11:03:51.414Z,24.67
2018-02-14T11:06:18.990Z,25.73
2018-02-14T11:08:46.567Z,23.97
2018-02-14T11:11:14.151Z,24.70
2018-02-14T11:13:41.737Z,24.23
2018-02-14T11:16:09.348Z,27.00
2018-02-14T11:18:36.935Z,23.77
2018-02-14T11:21:04.510Z,25.00
2018-02-14T11:23:32.094Z,24.33
2018-02-14T11:25:59.677Z,20.30
2018-02-14T11:28:28.162Z,22.43
2018-02-14T11:30:55.739Z,20.27
2018-02-14T11:33:23.315Z,18.97
2018-02-14T11:35:50.891Z,19.93
2018-02-14T11:38:18.472Z,19.50
2018-02-14T11:40:46.055Z,17.00
2018-02-14T11:43:13.781Z,17.90
2018-02-14T11:45:41.394Z,18.20
2018-02-14T11:48:09.946Z,18.50
2018-02-14T11:50:38.372Z,17.27
2018-02-14T11:53:05.986Z,16.97
2018-02-14T11:55:33.565Z,19.03
2018-02-14T11:58:01.150Z,14.77
2018-02-14T12:00:28.816Z,17.47
2018-02-14T12:02:56.395Z,18.23
2018-02-14T12:05:24.006Z,20.10
2018-02-14T12:07:51.579Z,19.13
2018-02-14T12:10:19.246Z,15.60
2018-02-14T12:12:46.826Z,18.00
2018-02-14T12:15:14.406Z,17.63
2018-02-14T12:17:41.978Z,18.03
2018-02-14T12:20:09.558Z,17.17
2018-02-14T12:22:37.932Z,17.27
2018-02-14T12:25:05.516Z,16.23
2018-02-14T12:27:33.096Z,15.50
2018-02-14T12:30:01.592Z,15.80
2018-02-14T12:32:29.170Z,15.90
2018-02-14T12:34:56.743Z,15.27
2018-02-14T12:37:25.238Z,16.30
2018-02-14T12:39:52.823Z,14.03
2018-02-14T12:42:20.402Z,15.37
2018-02-14T12:44:47.983Z,16.13
2018-02-14T12:47:15.559Z,17.17
2018-02-14T12:49:43.291Z,17.43
2018-02-14T12:52:11.683Z,15.30
2018-02-14T12:54:39.270Z,16.83
2018-02-14T12:57:06.851Z,15.50
2018-02-14T12:59:35.382Z,16.60
2018-02-14T13:02:03.784Z,14.80
2018-02-14T13:04:32.282Z,15.20
2018-02-14T13:06:59.867Z,14.37
2018-02-14T13:09:27.452Z,16.67
2018-02-14T13:11:55.810Z,15.10
2018-02-14T13:14:24.446Z,11.73
2018-02-14T13:16:52.022Z,11.37
2018-02-14T13:19:20.384Z,13.63
2018-02-14T13:21:47.958Z,16.20
2018-02-14T13:24:16.365Z,16.73
2018-02-14T13:26:44.739Z,16.80
2018-02-14T13:29:13.247Z,15.77
2018-02-14T13:31:41.615Z,14.87
2018-02-14T13:34:09.270Z,14.97
2018-02-14T13:36:36.857Z,14.57
2018-02-14T13:39:04.443Z,15.70
2018-02-14T13:41:32.019Z,19.13
2018-02-14T13:43:59.647Z,16.80
2018-02-14T13:46:27.227Z,15.83
2018-02-14T13:48:54.801Z,15.23
2018-02-14T13:51:22.374Z,16.10
2018-02-14T13:53:49.957Z,17.00
2018-02-14T13:56:17.538Z,15.10
2018-02-14T13:58:45.119Z,15.47
2018-02-14T14:01:12.696Z,15.60
2018-02-14T14:03:40.273Z,13.80
2018-02-14T14:06:07.847Z,14.97
2018-02-14T14:08:35.432Z,12.90
2018-02-14T14:11:03.067Z,15.53
2018-02-14T14:13:30.624Z,14.20
2018-02-14T14:15:58.982Z,13.23
2018-02-14T14:18:26.558Z,14.20
2018-02-14T14:20:55.022Z,13.67
2018-02-14T14:23:22.643Z,14.33
2018-02-14T14:25:50.221Z,13.70
2018-02-14T14:28:17.801Z,13.90
2018-02-14T14:30:45.384Z,13.00
2018-02-14T14:33:12.990Z,12.00
2018-02-14T14:35:40.572Z,12.07
2018-02-14T14:38:08.167Z,17.13
2018-02-14T14:40:36.658Z,20.63
2018-02-14T14:43:04.311Z,21.57
2018-02-14T14:45:31.888Z,23.57
2018-02-14T14:47:59.466Z,24.80
2018-02-14T14:50:27.082Z,25.97
2018-02-14T14:52:54.658Z,25.67
2018-02-14T14:55:22.230Z,28.57
2018-02-14T14:57:49.843Z,28.00
2018-02-14T15:00:17.443Z,28.50
2018-02-14T15:02:45.026Z,27.60
2018-02-14T15:05:12.610Z,28.57
2018-02-14T15:07:40.191Z,27.23
2018-02-14T15:10:07.780Z,27.93
2018-02-14T15:12:35.396Z,29.27
2018-02-14T15:15:03.984Z,29.87
2018-02-14T15:17:31.618Z,28.67
2018-02-14T15:19:59.203Z,29.47
2018-02-14T15:22:26.778Z,28.23
2018-02-14T15:24:54.361Z,27.60
2018-02-14T15:27:21.996Z,30.33
2018-02-14T15:29:50.584Z,27.87
2018-02-14T15:32:18.162Z,29.77
2018-02-14T15:34:45.751Z,30.07
2018-02-14T15:37:13.331Z,31.90
2018-02-14T15:39:41.971Z,29.63
2018-02-14T15:42:09.554Z,28.63
2018-02-14T15:44:37.955Z,28.90
2018-02-14T15:47:05.536Z,28.50
2018-02-14T15:49:33.939Z,28.90
2018-02-14T15:52:01.522Z,30.70
2018-02-14T15:54:29.139Z,28.97
2018-02-14T15:56:56.725Z,31.90
2018-02-14T15:59:24.346Z,30.83
2018-02-14T16:01:52.733Z,26.57
2018-02-14T16:04:20.311Z,28.97
2018-02-14T16:06:47.900Z,26.97
2018-02-14T16:09:15.487Z,27.60
2018-02-14T16:11:43.062Z,30.43
2018-02-14T16:14:10.639Z,28.70
2018-02-14T16:16:39.303Z,29.30
2018-02-14T16:19:06.975Z,27.40
2018-02-14T16:21:34.563Z,30.93
2018-02-14T16:24:02.990Z,28.00
2018-02-14T16:26:31.355Z,27.13
2018-02-14T16:28:58.979Z,27.40
2018-02-14T16:31:27.250Z,31.17
2018-02-14T16:33:55.524Z,27.77
2018-02-14T16:36:23.791Z,30.03
2018-02-14T16:38:52.286Z,29.20
2018-02-14T16:41:20.559Z,30.23
2018-02-14T16:43:48.920Z,29.40
2018-02-14T16:46:17.296Z,33.17
2018-02-14T16:48:45.679Z,31.77
2018-02-14T16:51:13.266Z,29.10
2018-02-14T16:53:40.853Z,28.67
2018-02-14T16:56:09.080Z,31.00
2018-02-14T16:58:37.448Z,29.97
2018-02-14T17:01:05.091Z,30.15
2018-02-14T17:03:32.681Z,29.83
2018-02-14T17:06:00.448Z,34.85
2018-02-14T17:08:28.042Z,32.83
2018-02-14T17:10:55.691Z,33.22
2018-02-14T17:13:23.267Z,31.70
2018-02-14T17:15:51.628Z,29.90
2018-02-14T17:18:19.214Z,33.30
2018-02-14T17:20:46.803Z,31.70
2018-02-14T17:23:14.400Z,37.03
2018-02-14T17:25:42.026Z,34.10
2018-02-14T17:28:10.464Z,33.15
2018-02-14T17:30:38.066Z,32.38
2018-02-14T17:33:07.023Z,31.85
2018-02-14T17:35:35.210Z,32.17
2018-02-14T17:38:02.805Z,34.60
2018-02-14T17:40:30.440Z,31.67
2018-02-14T17:42:58.950Z,33.58
2018-02-14T17:45:26.534Z,35.22
2018-02-14T17:47:54.166Z,35.70
2018-02-14T17:50:21.759Z,32.03
2018-02-14T17:52:49.407Z,37.85
2018-02-14T17:55:17.337Z,36.83
2018-02-14T17:57:44.926Z,37.53
2018-02-14T18:00:17.074Z,38.08
2018-02-14T18:02:44.762Z,36.25
2018-02-14T18:05:12.413Z,36.90
2018-02-14T18:07:40.045Z,36.38
2018-02-14T18:10:07.634Z,40.00
2018-02-14T18:12:35.299Z,38.10
2018-02-14T18:15:02.887Z,38.35
2018-02-14T18:17:31.300Z,38.42
2018-02-14T18:19:58.882Z,40.60
2018-02-14T18:22:26.479Z,39.92
2018-02-14T18:24:54.112Z,37.80
2018-02-14T18:27:21.703Z,35.67
2018-02-14T18:29:50.542Z,36.55
2018-02-14T18:32:18.129Z,39.05
2018-02-14T18:34:45.719Z,38.60
2018-02-14T18:37:13.379Z,36.70
2018-02-14T18:39:40.983Z,38.80
2018-02-14T18:42:08.626Z,40.75
2018-02-14T18:44:36.232Z,39.80
2018-02-14T18:47:03.822Z,39.72
2018-02-14T18:49:34.263Z,33.85
2018-02-14T18:52:02.446Z,40.05
2018-02-14T18:54:30.043Z,33.95
2018-02-14T18:56:57.665Z,40.53
2018-02-14T18:59:25.283Z,38.42
2018-02-14T19:01:52.865Z,36.88
2018-02-14T19:04:20.521Z,35.72
2018-02-14T19:06:48.116Z,36.03
2018-02-14T19:09:15.710Z,35.10
2018-02-14T19:11:45.487Z,37.72
2018-02-14T19:14:16.771Z,37.65
2018-02-14T19:16:44.414Z,36.95
2018-02-14T19:19:12.835Z,42.20
2018-02-14T19:21:40.430Z,40.55
2018-02-14T19:24:08.070Z,37.05
2018-02-14T19:26:35.667Z,42.72
2018-02-14T19:29:03.301Z,39.88
2018-02-14T19:31:30.959Z,36.30
2018-02-14T19:33:58.593Z,35.53
2018-02-14T19:36:26.186Z,38.20
2018-02-14T19:38:53.779Z,38.63
2018-02-14T19:41:21.411Z,40.28
2018-02-14T19:43:49.936Z,39.30
2018-02-14T19:46:17.602Z,38.47
2018-02-14T19:48:45.242Z,37.60
2018-02-14T19:51:12.840Z,38.22
2018-02-14T19:53:40.438Z,41.20
2018-02-14T19:56:08.164Z,39.08
2018-02-14T19:58:35.858Z,40.08
2018-02-14T20:01:04.460Z,40.83
2018-02-14T20:03:32.050Z,38.15
2018-02-14T20:05:59.684Z,40.50
2018-02-14T20:08:27.280Z,38.33
2018-02-14T20:10:54.903Z,39.22
2018-02-14T20:13:22.518Z,36.92
2018-02-14T20:15:50.735Z,37.40
2018-02-14T20:18:18.335Z,37.08
2018-02-14T20:20:46.633Z,39.30
2018-02-14T20:23:15.091Z,37.60
2018-02-14T20:25:43.456Z,37.78
2018-02-14T20:28:11.819Z,38.22
2018-02-14T20:30:40.191Z,33.85
2018-02-14T20:33:07.936Z,39.75
2018-02-14T20:35:35.584Z,39.22
2018-02-14T20:38:03.390Z,37.65
2018-02-14T20:40:30.986Z,38.05
2018-02-14T20:42:58.894Z,39.70
2018-02-14T20:45:27.324Z,40.25
2018-02-14T20:47:54.962Z,39.53
2018-02-14T20:50:22.554Z,38.25
2018-02-14T20:52:50.177Z,35.92
2018-02-14T20:55:17.774Z,36.63
2018-02-14T20:57:45.374Z,38.25
2018-02-14T21:00:13.329Z,37.45
2018-02-14T21:02:40.922Z,38.60
2018-02-14T21:05:08.510Z,38.13
2018-02-14T21:07:36.103Z,39.17
2018-02-14T21:10:03.751Z,41.20
2018-02-14T21:12:31.344Z,39.47
2018-02-14T21:14:58.941Z,42.45
2018-02-14T21:17:26.574Z,38.95
2018-02-14T21:19:54.171Z,40.45
2018-02-14T21:22:21.761Z,39.42
2018-02-14T21:24:50.175Z,35.55
2018-02-14T21:27:18.569Z,37.85
2018-02-14T21:29:46.206Z,40.17
2018-02-14T21:32:13.803Z,37.67
2018-02-14T21:34:42.250Z,37.58
2018-02-14T21:37:10.633Z,41.28
2018-02-14T21:39:38.226Z,41.40
2018-02-14T21:42:06.855Z,39.67
2018-02-14T21:44:34.449Z,36.83
2018-02-14T21:47:02.048Z,36.72
2018-02-14T21:49:30.444Z,43.05
2018-02-14T21:51:58.678Z,40.38
2018-02-14T21:54:27.054Z,37.85
2018-02-14T21:56:55.427Z,38.22
2018-02-14T21:59:23.857Z,39.85
2018-02-14T22:01:51.443Z,37.30
2018-02-14T22:04:19.044Z,39.50
2018-02-14T22:06:46.642Z,39.20
2018-02-14T22:09:14.234Z,37.47
2018-02-14T22:11:41.848Z,40.42
2018-02-14T22:14:10.466Z,35.78
2018-02-14T22:16:38.055Z,39.97
2018-02-14T22:19:05.683Z,37.58
2018-02-14T22:21:33.276Z,39.10
2018-02-14T22:24:00.907Z,35.55
2018-02-14T22:26:28.556Z,37.33
2018-02-14T22:28:57.633Z,40.00
2018-02-14T22:31:25.231Z,36.25
2018-02-14T22:33:52.821Z,34.20
2018-02-14T22:36:20.442Z,37.95
2018-02-14T22:38:48.958Z,36.97
2018-02-14T22:41:17.500Z,34.47
2018-02-14T22:43:45.806Z,39.90
2018-02-14T22:46:13.435Z,37.38
2018-02-14T22:48:41.855Z,38.08
2018-02-14T22:51:09.505Z,38.45
2018-02-14T22:53:37.166Z,42.25
2018-02-14T22:56:04.787Z,36.50
2018-02-14T22:58:32.420Z,40.70
2018-02-14T23:01:00.017Z,37.65
2018-02-14T23:03:28.495Z,41.33
2018-02-14T23:05:56.906Z,41.83
2018-02-14T23:08:25.395Z,42.88
2018-02-14T23:10:53.061Z,39.03
2018-02-14T23:13:20.656Z,43.83
2018-02-14T23:15:48.307Z,40.95
2018-02-14T23:18:15.931Z,44.75
2018-02-14T23:20:44.457Z,42.45
2018-02-14T23:23:12.847Z,48.22
2018-02-14T23:25:41.267Z,46.28
2018-02-14T23:28:09.759Z,42.05
2018-02-14T23:30:37.470Z,43.35
2018-02-14T23:33:05.058Z,48.17
2018-02-14T23:35:33.531Z,53.05
2018-02-14T23:38:02.019Z,47.80
2018-02-14T23:40:30.431Z,50.58
2018-02-14T23:42:58.031Z,55.85
2018-02-14T23:45:25.680Z,52.92
2018-02-14T23:47:54.198Z,58.10
2018-02-14T23:50:21.792Z,53.65
2018-02-14T23:52:49.987Z,55.55
2018-02-14T23:55:17.621Z,56.03
2018-02-14T23:57:46.047Z,53.28
